Santee, CA

3:18 AM PST on November 26, 2014 (GMT -0800)
Miramar Marine Corps Air Station-Mitscher | Change Station
CLOSE
Current Station
Airport
Location: Miramar MCAS,
Elevation: 476 ft
Nearby Weather Stations
Active Advisory: Fire Weather Warning

Elev 476 ft 32.86 °N, 117.14 °W | Updated 23 minutes ago

Clear
Clear
55 °F
Feels Like 55 °F
N
9
Wind Variable Wind from East

Today
High -- | Low -- °F
--% Chance of Precip.
Yesterday
High -- | Low -- °F
Precip. -- in
6:28 AM 4:42 PM
Waxing Crescent, 19% visible
Pressure 30.21 in
Visibility 10.0 miles
Clouds Clear
Dew Point 21 °F
Humidity 27%
Rainfall 0.00 in
Snow Depth Not available.
UV 0 out of 12
Pollen 2.70 out of 12
Air Quality Not available.
Flu Activity Not available.
METAR KNKX 261055Z 08008KT 10SM CLR 13/M06 A3022 RMK AO2 SLP228 T01281061

More Conditions Fewer Conditions

Pressure 30.21 in
Visibility 10.0 miles
Clouds Clear
Dew Point 21 °F
Humidity 27%
Rainfall 0.00 in
Snow Depth Not available.
UV 0 out of 12
Pollen 2.70 out of 12
Air Quality Not available.
Flu Activity Not available.
METAR KNKX 261055Z 08008KT 10SM CLR 13/M06 A3022 RMK AO2 SLP228 T01281061

More Conditions Fewer Conditions

10-Day Weather Forecast

Almanac

Astronomy

Nov. 26, 2014 Rise Set
Actual Time
Civil Twilight
Nautical Twilight
Astronomical Twilight
Moon
Length of Visible Light
Length of Day
Tomorrow will be .
, % of the Moon is Illuminated

Today's Extremes

State Highs State Lows

Community

WunderPhotos

Upload Photos

1,773,708 photos uploaded!

WunderBlogs® & News

Nearby

Air Quality

  Air Quality AQ Index Pollutant
Not available.

Snow Depth

Station Depth Elevation

Earthquake Activity

City Distance Mag. Time & Date
Minimum magnitude displayed is 2.5.

Coastal Water Temperatures

Place Temperature

Nearby Weather Stations